Time;durP1;ratioP1;P1;durP2;ratioP2;P2;SDS_P1;SDS_P2;PMS_P1;PMS_P2;Temp;Humidity;BMP_temperature;BMP_pressure;BME280_temperature;BME280_humidity;BME280_pressure;Samples;Min_cycle;Max_cycle;Signal;HPM_P1;HPM_P2
2023/04/24 00:03:03;;;;;;;9.73;3.95;;;;;12.00;95341.00;;;;8318930;28;20236;-75
2023/04/24 00:07:08;;;;;;;8.20;3.65;;;;;12.00;95341.00;;;;8317298;28;20807;-76
2023/04/24 00:11:12;;;;;;;8.77;4.05;;;;;11.90;95337.00;;;;8319035;28;20209;-75
2023/04/24 00:15:16;;;;;;;7.63;4.20;;;;;11.80;95328.00;;;;8300680;28;20227;-75
2023/04/24 00:19:21;;;;;;;11.05;4.72;;;;;11.90;95329.00;;;;8315908;28;20206;-75
2023/04/24 00:23:25;;;;;;;7.57;4.43;;;;;11.80;95330.00;;;;8319677;28;20213;-76
2023/04/24 00:27:32;;;;;;;8.02;4.20;;;;;11.80;95328.00;;;;8316661;28;20688;-76
2023/04/24 00:31:35;;;;;;;5.97;3.90;;;;;11.80;95334.00;;;;8309282;28;20240;-75
2023/04/24 00:35:42;;;;;;;9.75;4.90;;;;;11.70;95324.00;;;;8315251;28;20217;-75
2023/04/24 00:39:46;;;;;;;7.68;4.65;;;;;11.70;95317.00;;;;8317456;28;20278;-75
2023/04/24 00:43:55;;;;;;;7.20;4.20;;;;;11.70;95327.00;;;;8301750;28;20635;-75
2023/04/24 00:47:58;;;;;;;10.35;4.90;;;;;11.70;95322.00;;;;8313909;28;20804;-76
2023/04/24 00:52:08;;;;;;;8.85;4.80;;;;;11.70;95332.00;;;;8316484;28;20204;-76
2023/04/24 00:56:15;;;;;;;17.45;5.90;;;;;11.70;95322.00;;;;8314017;28;20309;-76
2023/04/24 01:00:19;;;;;;;14.80;5.95;;;;;11.80;95320.00;;;;8292138;28;20249;-75
2023/04/24 01:04:28;;;;;;;12.18;5.50;;;;;11.80;95323.00;;;;8317323;28;20223;-75
2023/04/24 01:08:33;;;;;;;11.25;5.32;;;;;11.80;95327.00;;;;8309485;28;20314;-75
2023/04/24 01:12:42;;;;;;;10.30;5.53;;;;;11.90;95324.00;;;;8315896;28;20308;-76
2023/04/24 01:16:45;;;;;;;10.75;5.20;;;;;11.80;95326.00;;;;8316878;28;20232;-76
2023/04/24 01:20:53;;;;;;;11.77;5.57;;;;;11.80;95322.00;;;;8302487;28;20212;-76
2023/04/24 01:25:01;;;;;;;17.42;5.70;;;;;11.70;95327.00;;;;8314043;28;20335;-76
2023/04/24 01:29:04;;;;;;;14.82;6.45;;;;;11.70;95331.00;;;;8314196;28;20205;-76
2023/04/24 01:33:10;;;;;;;16.15;7.15;;;;;11.60;95333.00;;;;8314107;28;20204;-75
2023/04/24 01:37:16;;;;;;;12.48;6.88;;;;;11.60;95328.00;;;;8311148;28;20283;-75
2023/04/24 01:41:23;;;;;;;17.88;7.28;;;;;11.70;95317.00;;;;8317963;28;20245;-75
2023/04/24 01:45:27;;;;;;;12.43;6.15;;;;;11.70;95309.00;;;;8310739;28;20279;-76
2023/04/24 01:49:39;;;;;;;16.13;6.53;;;;;11.70;95315.00;;;;8312450;28;20654;-75
2023/04/24 01:53:42;;;;;;;14.85;7.28;;;;;11.70;95319.00;;;;8315022;28;20205;-76
2023/04/24 01:57:50;;;;;;;15.35;7.43;;;;;11.70;95319.00;;;;8317729;28;20317;-74
2023/04/24 02:01:53;;;;;;;18.33;7.78;;;;;11.70;95317.00;;;;8308077;28;20212;-75
2023/04/24 02:05:57;;;;;;;13.13;6.70;;;;;11.70;95305.00;;;;8313206;28;20190;-76
2023/04/24 02:10:00;;;;;;;15.90;7.55;;;;;11.70;95312.00;;;;8313659;28;20201;-76
2023/04/24 02:14:09;;;;;;;19.00;8.23;;;;;11.70;95301.00;;;;8313906;28;20201;-76
2023/04/24 02:18:15;;;;;;;17.70;8.30;;;;;11.80;95298.00;;;;8315629;28;20696;-75
2023/04/24 02:22:18;;;;;;;15.77;7.75;;;;;11.70;95297.00;;;;8316501;28;20648;-75
2023/04/24 02:26:21;;;;;;;24.25;7.78;;;;;11.70;95290.00;;;;8317169;28;20200;-74
2023/04/24 02:30:29;;;;;;;25.42;8.68;;;;;11.70;95297.00;;;;8301118;28;20197;-74
2023/04/24 02:34:33;;;;;;;18.85;7.22;;;;;11.50;95288.00;;;;8320572;28;20204;-75
2023/04/24 02:38:37;;;;;;;20.98;7.90;;;;;11.40;95288.00;;;;8320850;28;20221;-76
2023/04/24 02:42:40;;;;;;;20.02;7.97;;;;;11.40;95284.00;;;;8304947;28;20210;-74
2023/04/24 02:46:44;;;;;;;22.48;8.70;;;;;11.30;95267.00;;;;8321756;28;20208;-74
2023/04/24 02:50:48;;;;;;;26.75;8.85;;;;;11.20;95265.00;;;;8322858;28;20193;-75
2023/04/24 02:54:51;;;;;;;27.02;8.98;;;;;11.10;95274.00;;;;8318645;28;20662;-76
2023/04/24 02:58:54;;;;;;;26.55;9.63;;;;;11.10;95271.00;;;;8321276;28;20642;-75
2023/04/24 03:02:58;;;;;;;28.88;9.55;;;;;11.00;95271.00;;;;8341123;23;20314;-75
2023/04/24 03:07:02;;;;;;;21.77;8.55;;;;;11.00;95267.00;;;;8322479;28;20284;-75
2023/04/24 03:11:07;;;;;;;27.80;10.15;;;;;10.90;95270.00;;;;8326313;28;20848;-76
2023/04/24 03:15:10;;;;;;;31.75;10.80;;;;;10.90;95267.00;;;;8314394;28;20555;-74
2023/04/24 03:19:15;;;;;;;25.85;10.93;;;;;10.90;95272.00;;;;8316018;28;20259;-74
2023/04/24 03:23:18;;;;;;;24.58;9.35;;;;;10.80;95266.00;;;;8320753;28;20915;-74
2023/04/24 03:27:21;;;;;;;27.65;9.95;;;;;10.80;95266.00;;;;8330261;28;20205;-74
2023/04/24 03:31:24;;;;;;;29.38;10.95;;;;;10.80;95271.00;;;;8304251;28;20200;-74
2023/04/24 03:35:30;;;;;;;29.45;10.60;;;;;10.80;95266.00;;;;8313350;28;20223;-75
2023/04/24 03:39:34;;;;;;;27.80;10.63;;;;;10.80;95274.00;;;;8327108;28;20583;-75
2023/04/24 03:43:39;;;;;;;25.98;10.40;;;;;10.90;95278.00;;;;8328364;28;20942;-75
2023/04/24 03:47:43;;;;;;;26.73;10.55;;;;;10.90;95289.00;;;;8336555;28;20900;-74
2023/04/24 03:51:48;;;;;;;18.63;9.13;;;;;11.00;95289.00;;;;8327403;28;20662;-75
2023/04/24 03:55:53;;;;;;;19.80;9.13;;;;;11.10;95297.00;;;;8324300;28;20593;-75
2023/04/24 03:59:56;;;;;;;25.20;9.40;;;;;11.10;95293.00;;;;8343051;28;20221;-75
2023/04/24 04:03:59;;;;;;;16.90;8.13;;;;;11.10;95290.00;;;;8334090;28;20308;-75
2023/04/24 04:08:07;;;;;;;16.75;7.65;;;;;11.20;95289.00;;;;8347118;28;20693;-75
2023/04/24 04:12:10;;;;;;;16.50;7.70;;;;;11.20;95287.00;;;;8332874;28;20225;-75
2023/04/24 04:16:16;;;;;;;18.08;7.25;;;;;11.20;95288.00;;;;8345547;28;20212;-75
2023/04/24 04:20:20;;;;;;;14.23;6.80;;;;;11.20;95284.00;;;;8339709;28;20788;-75
2023/04/24 04:24:26;;;;;;;14.70;7.35;;;;;11.20;95275.00;;;;8340262;28;20199;-75
2023/04/24 04:28:32;;;;;;;14.63;7.60;;;;;11.30;95275.00;;;;8321522;28;20672;-75
2023/04/24 04:32:35;;;;;;;15.90;7.20;;;;;11.30;95278.00;;;;8317347;28;20694;-75
2023/04/24 04:36:44;;;;;;;17.33;7.47;;;;;11.30;95288.00;;;;8315943;28;20230;-76
2023/04/24 04:40:48;;;;;;;11.70;6.82;;;;;11.30;95277.00;;;;8318594;28;20208;-75
2023/04/24 04:44:51;;;;;;;15.10;6.63;;;;;11.30;95282.00;;;;8320722;28;20209;-75
2023/04/24 04:48:57;;;;;;;12.60;6.30;;;;;11.30;95277.00;;;;8318518;28;20197;-75
2023/04/24 04:53:03;;;;;;;14.27;6.57;;;;;11.40;95288.00;;;;8312565;28;20202;-76
2023/04/24 04:57:11;;;;;;;13.88;7.38;;;;;11.40;95292.00;;;;8317977;28;20797;-75
2023/04/24 05:01:14;;;;;;;16.25;7.20;;;;;11.40;95289.00;;;;8318718;28;20219;-75
2023/04/24 05:05:18;;;;;;;13.93;7.45;;;;;11.40;95299.00;;;;8310972;28;20233;-75
2023/04/24 05:09:21;;;;;;;15.05;6.78;;;;;11.50;95297.00;;;;8318673;28;20202;-75
2023/04/24 05:13:26;;;;;;;12.80;7.40;;;;;11.50;95300.00;;;;8325213;28;20250;-76
2023/04/24 05:17:42;;;;;;;13.00;7.13;;;;;11.60;95302.00;;;;8313545;28;20221;-75
2023/04/24 05:21:47;;;;;;;11.13;6.20;;;;;11.60;95300.00;;;;8325215;28;20208;-76
2023/04/24 05:26:01;;;;;;;13.38;6.32;;;;;11.60;95314.00;;;;8320964;28;20195;-75
2023/04/24 05:30:07;;;;;;;14.75;7.07;;;;;11.70;95316.00;;;;8317892;28;20201;-76
2023/04/24 05:34:14;;;;;;;11.77;6.70;;;;;11.70;95313.00;;;;8315723;28;20201;-76
2023/04/24 05:38:19;;;;;;;13.02;6.90;;;;;11.80;95319.00;;;;8316302;28;20238;-76
2023/04/24 05:42:27;;;;;;;12.82;6.50;;;;;11.90;95326.00;;;;8315356;28;20198;-73
2023/04/24 05:46:32;;;;;;;11.80;6.22;;;;;11.90;95319.00;;;;8319286;28;20255;-73
2023/04/24 05:50:35;;;;;;;10.50;6.07;;;;;12.00;95321.00;;;;8320084;28;20714;-74
2023/04/24 05:54:40;;;;;;;11.20;6.43;;;;;12.00;95324.00;;;;8317179;28;20211;-75
2023/04/24 05:58:46;;;;;;;14.40;6.30;;;;;12.20;95322.00;;;;8317979;28;20297;-75
2023/04/24 06:02:54;;;;;;;11.15;5.88;;;;;12.30;95322.00;;;;8315493;28;20266;-74
2023/04/24 06:07:00;;;;;;;12.18;6.20;;;;;12.30;95320.00;;;;8321515;28;20258;-75
2023/04/24 06:11:03;;;;;;;10.63;5.53;;;;;12.50;95331.00;;;;8323256;28;20216;-75
2023/04/24 06:15:10;;;;;;;12.30;5.95;;;;;12.50;95332.00;;;;8330955;28;20193;-78
2023/04/24 06:19:17;;;;;;;6.80;4.88;;;;;12.50;95333.00;;;;8337488;28;20224;-77
2023/04/24 06:23:20;;;;;;;7.97;4.43;;;;;12.50;95340.00;;;;8331413;28;20242;-77
2023/04/24 06:27:27;;;;;;;9.55;4.47;;;;;12.50;95338.00;;;;8341501;28;20204;-76
2023/04/24 06:31:34;;;;;;;7.53;3.63;;;;;12.50;95330.00;;;;8337748;28;20203;-77
2023/04/24 06:35:40;;;;;;;8.57;4.15;;;;;12.60;95339.00;;;;8346092;28;20245;-78
2023/04/24 06:39:47;;;;;;;7.78;4.68;;;;;12.70;95341.00;;;;8340193;28;20278;-77
2023/04/24 06:43:54;;;;;;;4.45;3.35;;;;;12.90;95338.00;;;;8341652;28;20237;-77
2023/04/24 06:47:57;;;;;;;4.53;3.40;;;;;13.10;95334.00;;;;8341398;28;20205;-78
2023/04/24 06:52:05;;;;;;;6.35;2.95;;;;;13.30;95338.00;;;;8326073;28;20235;-76
2023/04/24 06:56:15;;;;;;;3.63;2.90;;;;;13.50;95327.00;;;;8338888;28;20243;-78
2023/04/24 07:00:20;;;;;;;3.03;2.83;;;;;13.70;95326.00;;;;8344106;28;20236;-77
2023/04/24 07:04:24;;;;;;;3.20;2.70;;;;;13.90;95337.00;;;;8341761;28;20250;-80
2023/04/24 07:08:30;;;;;;;4.47;2.25;;;;;14.10;95334.00;;;;8351474;28;20204;-78
2023/04/24 07:12:35;;;;;;;7.85;2.30;;;;;14.10;95336.00;;;;8353414;28;20189;-79
2023/04/24 07:16:38;;;;;;;2.78;2.58;;;;;14.30;95325.00;;;;8322831;28;20258;-78
2023/04/24 07:20:49;;;;;;;2.50;2.28;;;;;14.60;95335.00;;;;8341107;28;20233;-80
2023/04/24 07:24:54;;;;;;;3.97;2.60;;;;;14.90;95343.00;;;;8331063;28;20208;-78
2023/04/24 07:29:00;;;;;;;2.25;2.15;;;;;14.90;95350.00;;;;8354510;28;20204;-79
2023/04/24 07:33:03;;;;;;;2.03;1.90;;;;;14.70;95339.00;;;;8325308;28;20251;-79
2023/04/24 07:37:06;;;;;;;2.45;2.10;;;;;14.70;95350.00;;;;8325054;28;20221;-79
2023/04/24 07:41:12;;;;;;;2.30;2.10;;;;;14.80;95339.00;;;;8323772;28;20989;-79
2023/04/24 07:45:18;;;;;;;7.00;2.00;;;;;15.00;95348.00;;;;8321509;28;20194;-77
2023/04/24 07:49:24;;;;;;;1.80;1.70;;;;;15.20;95360.00;;;;8322986;28;20202;-78
2023/04/24 07:53:28;;;;;;;6.13;3.20;;;;;15.50;95354.00;;;;8325090;28;20248;-78
2023/04/24 07:57:32;;;;;;;1.60;1.60;;;;;15.40;95345.00;;;;8324320;28;20201;-78
2023/04/24 08:01:35;;;;;;;3.08;1.88;;;;;15.10;95349.00;;;;8324498;28;20225;-77
2023/04/24 08:05:38;;;;;;;1.90;1.67;;;;;15.10;95353.00;;;;8324566;28;20213;-78
2023/04/24 08:09:43;;;;;;;1.40;1.40;;;;;15.10;95357.00;;;;8327428;28;20198;-79
2023/04/24 08:13:52;;;;;;;2.90;1.30;;;;;14.90;95379.00;;;;8325633;28;20292;-77
2023/04/24 08:17:58;;;;;;;1.83;1.40;;;;;14.30;95374.00;;;;8329265;28;20312;-78
2023/04/24 08:22:03;;;;;;;1.58;1.40;;;;;13.90;95378.00;;;;8323314;28;20286;-78
2023/04/24 08:26:07;;;;;;;1.35;1.35;;;;;13.80;95388.00;;;;8329371;28;20221;-78
2023/04/24 08:30:12;;;;;;;1.50;1.40;;;;;14.10;95391.00;;;;8330100;28;20646;-77
2023/04/24 08:34:19;;;;;;;1.70;1.20;;;;;14.40;95394.00;;;;8321509;28;20203;-76
2023/04/24 08:38:24;;;;;;;1.50;1.40;;;;;14.80;95396.00;;;;8323400;28;20248;-76
2023/04/24 08:42:32;;;;;;;1.27;1.27;;;;;15.00;95401.00;;;;8319917;28;20201;-77
2023/04/24 08:46:37;;;;;;;1.30;1.30;;;;;14.90;95405.00;;;;8320977;28;20202;-76
2023/04/24 08:50:42;;;;;;;1.23;1.23;;;;;14.60;95402.00;;;;8323195;28;20229;-76
2023/04/24 08:54:47;;;;;;;1.42;1.35;;;;;14.70;95413.00;;;;8320933;28;20206;-76
2023/04/24 08:58:52;;;;;;;1.30;1.30;;;;;14.70;95413.00;;;;8328616;28;20280;-76
2023/04/24 09:02:57;;;;;;;1.95;1.40;;;;;14.90;95415.00;;;;8329061;28;20291;-76
2023/04/24 09:07:04;;;;;;;1.48;1.48;;;;;15.10;95410.00;;;;8333001;28;20206;-76
2023/04/24 09:11:08;;;;;;;1.67;1.48;;;;;15.40;95416.00;;;;8328789;28;20288;-76
2023/04/24 09:15:12;;;;;;;2.53;1.40;;;;;15.20;95420.00;;;;8331857;28;20201;-76
2023/04/24 09:19:17;;;;;;;1.58;1.58;;;;;15.10;95406.00;;;;8338136;28;20216;-76
2023/04/24 09:23:21;;;;;;;2.95;1.30;;;;;15.00;95406.00;;;;8327540;28;20220;-76
2023/04/24 09:27:27;;;;;;;1.40;1.38;;;;;15.20;95402.00;;;;8335640;28;20255;-76
2023/04/24 09:31:32;;;;;;;3.20;1.67;;;;;15.70;95410.00;;;;8328820;28;20239;-76
2023/04/24 09:35:36;;;;;;;1.20;1.20;;;;;16.40;95411.00;;;;8327660;28;20676;-75
2023/04/24 09:39:41;;;;;;;1.58;1.58;;;;;16.30;95413.00;;;;8327837;28;20216;-76
2023/04/24 09:43:45;;;;;;;1.58;1.45;;;;;16.20;95426.00;;;;8326918;28;20304;-75
2023/04/24 09:47:56;;;;;;;1.63;1.35;;;;;15.90;95423.00;;;;8331582;28;21054;-75
2023/04/24 09:52:05;;;;;;;1.45;1.45;;;;;15.70;95439.00;;;;8335687;28;20205;-75
2023/04/24 09:56:12;;;;;;;1.77;1.40;;;;;15.60;95438.00;;;;8321392;28;20200;-74
2023/04/24 10:00:22;;;;;;;1.80;1.70;;;;;15.40;95444.00;;;;8332085;28;20730;-76
2023/04/24 10:04:28;;;;;;;1.65;1.55;;;;;15.40;95442.00;;;;8318340;28;20275;-75
2023/04/24 10:08:36;;;;;;;4.00;1.80;;;;;15.90;95442.00;;;;8319961;28;20201;-76
2023/04/24 10:12:40;;;;;;;2.05;1.50;;;;;16.10;95453.00;;;;8319114;28;20205;-76
2023/04/24 10:16:44;;;;;;;1.80;1.70;;;;;16.20;95463.00;;;;8322447;28;20918;-76
2023/04/24 10:20:48;;;;;;;1.55;1.45;;;;;16.10;95458.00;;;;8321670;28;20232;-76
2023/04/24 10:24:54;;;;;;;2.13;1.80;;;;;15.90;95441.00;;;;8322399;28;20212;-75
2023/04/24 10:28:59;;;;;;;2.83;1.63;;;;;16.10;95463.00;;;;8328270;28;20284;-76
2023/04/24 10:33:03;;;;;;;1.70;1.60;;;;;16.40;95461.00;;;;8314566;28;20236;-75
2023/04/24 10:37:09;;;;;;;1.90;1.80;;;;;16.50;95462.00;;;;8327974;28;20714;-76
2023/04/24 10:41:22;;;;;;;2.00;1.90;;;;;16.60;95450.00;;;;8330497;28;20232;-76
2023/04/24 10:45:26;;;;;;;1.92;1.83;;;;;17.20;95459.00;;;;8332761;28;20251;-76
2023/04/24 10:49:33;;;;;;;1.67;1.58;;;;;17.40;95460.00;;;;8315380;28;20209;-76
2023/04/24 10:53:36;;;;;;;2.28;1.52;;;;;17.60;95454.00;;;;8339941;28;20201;-76
2023/04/24 10:58:06;;;;;;;1.65;1.55;;;;;18.00;95445.00;;;;8341396;28;20205;-77
2023/04/24 11:02:11;;;;;;;1.77;1.67;;;;;18.10;95459.00;;;;8321547;28;20278;-77
2023/04/24 11:06:16;;;;;;;2.13;1.35;;;;;18.20;95466.00;;;;8343587;28;20196;-76
2023/04/24 11:10:26;;;;;;;3.38;2.00;;;;;17.70;95469.00;;;;8328377;28;20240;-76
2023/04/24 11:14:31;;;;;;;1.67;1.58;;;;;17.00;95471.00;;;;8324607;28;20244;-77
2023/04/24 11:18:44;;;;;;;1.67;1.67;;;;;16.00;95486.00;;;;8329081;28;20190;-77
2023/04/24 11:22:48;;;;;;;2.20;2.00;;;;;14.60;95487.00;;;;8329122;28;20731;-77
2023/04/24 11:26:53;;;;;;;1.80;1.70;;;;;14.00;95481.00;;;;8328922;28;20259;-77
2023/04/24 11:30:57;;;;;;;1.70;1.60;;;;;14.00;95491.00;;;;8333335;28;20200;-77
2023/04/24 11:35:05;;;;;;;1.77;1.67;;;;;14.30;95499.00;;;;8331827;28;20206;-77
2023/04/24 11:39:08;;;;;;;1.80;1.70;;;;;14.70;95490.00;;;;8332576;28;20248;-76
2023/04/24 11:43:15;;;;;;;1.30;1.30;;;;;15.20;95485.00;;;;8340407;28;20205;-77
2023/04/24 11:47:20;;;;;;;2.40;1.58;;;;;15.90;95482.00;;;;8331973;28;20197;-76
2023/04/24 11:51:25;;;;;;;1.90;1.80;;;;;16.90;95469.00;;;;8342783;28;20342;-77
2023/04/24 11:55:38;;;;;;;1.77;1.67;;;;;18.10;95479.00;;;;8343224;28;20280;-77
2023/04/24 11:59:41;;;;;;;1.70;1.60;;;;;18.10;95486.00;;;;8349455;28;20217;-77
2023/04/24 12:03:50;;;;;;;2.92;1.85;;;;;17.90;95472.00;;;;8334120;28;20236;-78
2023/04/24 12:07:55;;;;;;;2.20;2.10;;;;;17.40;95473.00;;;;8338061;28;20200;-77
2023/04/24 12:12:00;;;;;;;2.25;2.05;;;;;17.50;95465.00;;;;8331314;28;20205;-77
2023/04/24 12:16:07;;;;;;;1.98;1.88;;;;;17.60;95466.00;;;;8319135;28;20197;-77
2023/04/24 12:20:13;;;;;;;1.88;1.70;;;;;17.60;95467.00;;;;8322341;28;20232;-77
2023/04/24 12:24:21;;;;;;;1.77;1.70;;;;;17.50;95471.00;;;;8322937;28;20193;-77
2023/04/24 12:28:26;;;;;;;3.13;1.70;;;;;17.60;95461.00;;;;8320793;28;20201;-77
2023/04/24 12:32:29;;;;;;;1.60;1.60;;;;;17.70;95467.00;;;;8322219;28;20280;-78
2023/04/24 12:36:41;;;;;;;3.00;1.50;;;;;17.90;95465.00;;;;8322057;28;20210;-77
2023/04/24 12:40:47;;;;;;;2.85;1.05;;;;;17.80;95482.00;;;;8325060;28;20225;-77
2023/04/24 12:44:58;;;;;;;1.30;1.20;;;;;17.20;95482.00;;;;8327077;28;20324;-77
2023/04/24 12:49:02;;;;;;;1.55;1.05;;;;;17.10;95487.00;;;;8320894;28;20688;-77
2023/04/24 12:53:11;;;;;;;1.50;1.40;;;;;16.90;95502.00;;;;8321532;28;20543;-78
2023/04/24 12:57:17;;;;;;;1.27;1.23;;;;;16.60;95509.00;;;;8328346;28;20287;-78
2023/04/24 13:01:22;;;;;;;2.90;1.50;;;;;16.10;95537.00;;;;8325682;28;20232;-77
2023/04/24 13:05:27;;;;;;;1.50;1.40;;;;;15.60;95525.00;;;;8330943;28;20204;-77
2023/04/24 13:09:34;;;;;;;1.48;1.38;;;;;15.70;95539.00;;;;8326994;28;20275;-76
2023/04/24 13:13:48;;;;;;;1.75;1.50;;;;;16.00;95537.00;;;;8330136;28;20659;-76
2023/04/24 13:17:51;;;;;;;1.40;1.30;;;;;16.00;95528.00;;;;8330791;28;20244;-77
2023/04/24 13:21:56;;;;;;;1.40;1.30;;;;;16.00;95528.00;;;;8329623;28;20706;-76
2023/04/24 13:26:02;;;;;;;1.40;1.40;;;;;15.90;95532.00;;;;8336273;28;20920;-76
2023/04/24 13:30:08;;;;;;;1.83;1.60;;;;;16.30;95535.00;;;;8327915;28;20647;-76
2023/04/24 13:34:12;;;;;;;1.67;1.50;;;;;16.60;95534.00;;;;8331936;28;20197;-77
2023/04/24 13:38:16;;;;;;;1.42;1.40;;;;;16.70;95526.00;;;;8321641;28;20666;-77
2023/04/24 13:42:23;;;;;;;1.60;1.50;;;;;16.70;95527.00;;;;8339516;28;20220;-77
2023/04/24 13:46:33;;;;;;;1.70;1.40;;;;;16.50;95526.00;;;;8318435;28;20213;-76
2023/04/24 13:50:37;;;;;;;2.35;1.60;;;;;16.20;95537.00;;;;8312334;28;20209;-77
2023/04/24 13:54:40;;;;;;;1.50;1.48;;;;;15.70;95542.00;;;;8313306;28;20201;-77
2023/04/24 13:58:46;;;;;;;2.72;1.67;;;;;14.90;95550.00;;;;8319999;28;20263;-79
2023/04/24 14:02:50;;;;;;;1.63;1.52;;;;;13.70;95550.00;;;;8326098;28;20297;-78
2023/04/24 14:06:55;;;;;;;1.90;1.80;;;;;12.90;95553.00;;;;8337338;28;20207;-79
2023/04/24 14:11:04;;;;;;;3.50;3.17;;;;;12.60;95547.00;;;;8346069;28;20211;-79
2023/04/24 14:15:13;;;;;;;5.05;3.63;;;;;12.30;95553.00;;;;8330220;28;20706;-77
2023/04/24 14:19:18;;;;;;;3.05;2.20;;;;;12.20;95554.00;;;;8336477;28;20200;-78
2023/04/24 14:23:21;;;;;;;8.38;5.25;;;;;12.20;95551.00;;;;8330412;28;20270;-77
2023/04/24 14:27:24;;;;;;;2.53;2.30;;;;;12.30;95560.00;;;;8332798;28;20201;-74
2023/04/24 14:31:30;;;;;;;2.85;1.92;;;;;12.40;95553.00;;;;8333769;28;20225;-75
2023/04/24 14:35:35;;;;;;;2.35;1.80;;;;;12.50;95558.00;;;;8325021;28;20254;-74
2023/04/24 14:39:38;;;;;;;1.77;1.67;;;;;12.80;95548.00;;;;8326054;28;20217;-75
2023/04/24 14:43:41;;;;;;;1.92;1.80;;;;;13.30;95555.00;;;;8326101;28;20617;-75
2023/04/24 14:47:47;;;;;;;2.03;1.50;;;;;13.80;95555.00;;;;8327794;28;20316;-76
2023/04/24 14:51:50;;;;;;;1.90;1.80;;;;;14.20;95555.00;;;;8329020;28;20658;-75
2023/04/24 14:55:57;;;;;;;2.33;2.20;;;;;14.40;95546.00;;;;8329050;28;20211;-76
2023/04/24 15:00:05;;;;;;;1.77;1.60;;;;;14.50;95558.00;;;;8321736;28;20193;-76
2023/04/24 15:04:10;;;;;;;2.05;1.80;;;;;14.30;95562.00;;;;8326693;28;20231;-76
2023/04/24 15:08:14;;;;;;;1.98;1.88;;;;;14.30;95549.00;;;;8326826;28;20709;-76
2023/04/24 15:12:20;;;;;;;2.60;1.52;;;;;14.20;95552.00;;;;8328768;28;20198;-75
2023/04/24 15:16:24;;;;;;;2.38;2.10;;;;;14.10;95556.00;;;;8327067;28;20250;-75
2023/04/24 15:20:29;;;;;;;3.95;1.83;;;;;14.20;95563.00;;;;8329781;28;20648;-75
2023/04/24 15:24:32;;;;;;;2.47;2.03;;;;;14.50;95560.00;;;;8328650;28;20283;-75
2023/04/24 15:28:35;;;;;;;2.00;1.90;;;;;15.30;95568.00;;;;8322438;28;20209;-75
2023/04/24 15:32:39;;;;;;;2.03;1.92;;;;;16.00;95561.00;;;;8324436;28;20263;-75
2023/04/24 15:36:43;;;;;;;2.60;1.77;;;;;16.30;95571.00;;;;8323882;28;20232;-75
2023/04/24 15:40:48;;;;;;;1.50;1.50;;;;;16.20;95572.00;;;;8327387;28;20221;-75
2023/04/24 15:44:51;;;;;;;1.75;1.75;;;;;16.00;95573.00;;;;8328394;28;20819;-75
2023/04/24 15:48:54;;;;;;;4.15;1.77;;;;;15.60;95578.00;;;;8322182;28;20194;-75
2023/04/24 15:52:59;;;;;;;1.98;1.70;;;;;15.40;95590.00;;;;8334872;28;20197;-75
2023/04/24 15:57:06;;;;;;;1.85;1.77;;;;;15.30;95584.00;;;;8332883;28;20586;-75
2023/04/24 16:01:09;;;;;;;1.80;1.65;;;;;15.30;95573.00;;;;8326270;28;20220;-75
2023/04/24 16:05:12;;;;;;;1.77;1.67;;;;;15.20;95583.00;;;;8326548;28;20197;-75
2023/04/24 16:09:17;;;;;;;1.70;1.60;;;;;15.10;95579.00;;;;8335892;28;20250;-75
2023/04/24 16:13:22;;;;;;;1.83;1.70;;;;;14.70;95605.00;;;;8343462;28;20200;-75
2023/04/24 16:17:28;;;;;;;2.67;2.17;;;;;14.20;95610.00;;;;8332466;28;20960;-76
2023/04/24 16:21:31;;;;;;;1.83;1.73;;;;;13.50;95620.00;;;;8335319;28;20229;-75
2023/04/24 16:25:36;;;;;;;2.38;2.17;;;;;13.40;95608.00;;;;8319817;28;20209;-75
2023/04/24 16:29:44;;;;;;;2.35;1.80;;;;;13.70;95619.00;;;;8327158;28;20197;-75
2023/04/24 16:33:52;;;;;;;1.77;1.67;;;;;14.70;95601.00;;;;8327421;28;20309;-75
2023/04/24 16:37:55;;;;;;;1.70;1.60;;;;;14.90;95613.00;;;;8326431;28;20248;-75
2023/04/24 16:42:00;;;;;;;1.90;1.80;;;;;14.80;95613.00;;;;8345677;28;21373;-75
2023/04/24 16:46:03;;;;;;;2.08;1.98;;;;;14.70;95605.00;;;;8341421;28;20199;-75
2023/04/24 16:50:08;;;;;;;2.65;2.20;;;;;14.60;95607.00;;;;8334169;28;20271;-75
2023/04/24 16:54:11;;;;;;;2.15;1.95;;;;;14.20;95612.00;;;;8345122;28;20266;-76
2023/04/24 16:58:18;;;;;;;2.28;2.03;;;;;13.80;95612.00;;;;8340869;28;20196;-75
2023/04/24 17:02:27;;;;;;;3.03;2.30;;;;;13.60;95609.00;;;;8337093;28;20696;-75
2023/04/24 17:06:31;;;;;;;2.45;1.98;;;;;13.30;95615.00;;;;8331672;28;20194;-75
2023/04/24 17:10:34;;;;;;;2.00;1.90;;;;;13.20;95619.00;;;;8315523;28;20623;-76
2023/04/24 17:14:39;;;;;;;2.58;2.38;;;;;12.90;95618.00;;;;8320758;28;20243;-75
2023/04/24 17:18:42;;;;;;;1.65;1.65;;;;;12.70;95612.00;;;;8319101;28;20204;-74
2023/04/24 17:22:49;;;;;;;1.70;1.60;;;;;12.60;95623.00;;;;8319217;28;20232;-75
2023/04/24 17:26:53;;;;;;;2.45;2.25;;;;;12.60;95626.00;;;;8313084;28;20209;-75
2023/04/24 17:31:05;;;;;;;2.40;1.90;;;;;12.60;95620.00;;;;8320348;28;20201;-74
2023/04/24 17:35:15;;;;;;;3.17;2.13;;;;;12.70;95628.00;;;;8311751;28;20258;-76
2023/04/24 17:39:18;;;;;;;1.98;1.80;;;;;12.60;95627.00;;;;8317527;28;20196;-76
2023/04/24 17:43:25;;;;;;;2.30;2.20;;;;;12.50;95628.00;;;;8314681;28;20276;-77
2023/04/24 17:47:29;;;;;;;3.10;2.13;;;;;12.40;95637.00;;;;8320469;28;20201;-76
2023/04/24 17:51:35;;;;;;;4.40;2.20;;;;;12.30;95629.00;;;;8323426;28;20197;-75
2023/04/24 17:55:43;;;;;;;3.28;2.38;;;;;12.10;95637.00;;;;8320763;28;20204;-75
2023/04/24 17:59:46;;;;;;;3.95;2.42;;;;;11.90;95636.00;;;;8327097;28;20208;-75
2023/04/24 18:03:52;;;;;;;3.55;2.40;;;;;11.80;95639.00;;;;8329430;28;20236;-75
2023/04/24 18:07:57;;;;;;;3.50;2.40;;;;;11.60;95649.00;;;;8331431;28;20292;-76
2023/04/24 18:12:06;;;;;;;2.50;2.40;;;;;11.50;95650.00;;;;8326544;28;20205;-76
2023/04/24 18:16:10;;;;;;;4.45;2.55;;;;;11.30;95646.00;;;;8323525;28;20203;-76
2023/04/24 18:20:16;;;;;;;2.95;2.50;;;;;11.10;95656.00;;;;8329250;28;20253;-77
2023/04/24 18:24:21;;;;;;;4.03;2.60;;;;;10.90;95656.00;;;;8323612;28;20217;-76
2023/04/24 18:28:33;;;;;;;2.65;2.45;;;;;10.70;95654.00;;;;8343216;28;20203;-76
2023/04/24 18:32:36;;;;;;;4.22;2.42;;;;;10.60;95664.00;;;;8322310;28;20224;-76
2023/04/24 18:36:41;;;;;;;2.67;2.47;;;;;10.50;95680.00;;;;8323953;28;20207;-77
2023/04/24 18:40:47;;;;;;;2.83;2.63;;;;;10.40;95677.00;;;;8323401;28;20591;-75
2023/04/24 18:44:51;;;;;;;3.03;2.83;;;;;10.30;95681.00;;;;8323583;28;20781;-76
2023/04/24 18:48:55;;;;;;;4.43;2.83;;;;;10.30;95684.00;;;;8334427;28;20213;-76
2023/04/24 18:53:00;;;;;;;3.55;2.80;;;;;10.30;95689.00;;;;8336804;28;20202;-76
2023/04/24 18:57:04;;;;;;;3.45;2.80;;;;;10.20;95689.00;;;;8347464;28;20193;-77
2023/04/24 19:01:09;;;;;;;3.33;2.60;;;;;10.20;95691.00;;;;8340315;28;20214;-76
2023/04/24 19:05:13;;;;;;;4.65;3.00;;;;;10.20;95697.00;;;;8333046;28;20228;-77
2023/04/24 19:09:19;;;;;;;3.67;3.10;;;;;10.20;95696.00;;;;8335990;28;20191;-75
2023/04/24 19:13:22;;;;;;;3.35;3.05;;;;;10.20;95706.00;;;;8337943;28;20197;-75
2023/04/24 19:17:30;;;;;;;3.10;2.90;;;;;10.20;95709.00;;;;8330001;28;20196;-76
2023/04/24 19:21:34;;;;;;;5.60;3.05;;;;;10.20;95715.00;;;;8333372;28;20208;-75
2023/04/24 19:25:39;;;;;;;3.35;3.03;;;;;10.20;95729.00;;;;8333751;28;20233;-76
2023/04/24 19:29:42;;;;;;;5.38;3.25;;;;;10.10;95739.00;;;;8347392;28;20203;-76
2023/04/24 19:33:48;;;;;;;5.75;3.33;;;;;9.90;95746.00;;;;8321083;28;20200;-76
2023/04/24 19:37:51;;;;;;;4.65;2.85;;;;;9.80;95731.00;;;;8316125;28;20210;-76
2023/04/24 19:41:59;;;;;;;4.70;2.90;;;;;9.70;95735.00;;;;8318214;28;20256;-77
2023/04/24 19:46:05;;;;;;;3.50;3.15;;;;;9.70;95726.00;;;;8321442;28;20720;-79
2023/04/24 19:50:09;;;;;;;7.05;3.42;;;;;9.60;95724.00;;;;8325701;28;20248;-82
2023/04/24 19:54:12;;;;;;;4.25;3.60;;;;;9.70;95723.00;;;;8324659;28;20224;-81
2023/04/24 19:58:18;;;;;;;6.53;3.33;;;;;9.80;95719.00;;;;8321931;28;20745;-79
2023/04/24 20:02:22;;;;;;;3.50;3.20;;;;;9.80;95723.00;;;;8325640;28;20217;-79
2023/04/24 20:06:28;;;;;;;4.20;3.25;;;;;9.70;95721.00;;;;8324358;28;20209;-79
2023/04/24 20:10:35;;;;;;;4.78;3.28;;;;;9.60;95730.00;;;;8319914;28;20202;-79
2023/04/24 20:14:42;;;;;;;3.42;3.10;;;;;9.40;95717.00;;;;8323165;28;20303;-81
2023/04/24 20:18:45;;;;;;;4.75;3.30;;;;;9.30;95725.00;;;;8324142;28;20227;-79
2023/04/24 20:22:48;;;;;;;3.72;3.30;;;;;9.10;95721.00;;;;8330452;28;20450;-78
2023/04/24 20:26:54;;;;;;;3.70;3.40;;;;;8.90;95723.00;;;;8323415;28;20224;-79